createdAt,value
2017-09-15T00:00:20.461Z,-4.13
2017-09-15T00:01:14.501Z,-4.13
2017-09-15T00:02:08.823Z,-4.13
2017-09-15T00:02:57.611Z,-4.13
2017-09-15T00:03:57.611Z,-4.13
2017-09-15T00:04:46.667Z,-4.13
2017-09-15T00:05:41.781Z,-4.13
2017-09-15T00:06:41.760Z,-4.13
2017-09-15T00:07:35.714Z,-4.13
2017-09-15T00:08:35.720Z,-4.13
2017-09-15T00:09:29.769Z,-4.13
2017-09-15T00:10:23.850Z,-4.13
2017-09-15T00:11:18.127Z,-4.14
2017-09-15T00:12:12.865Z,-4.14
2017-09-15T00:13:00.880Z,-4.14
2017-09-15T00:13:54.992Z,-4.14
2017-09-15T00:14:42.932Z,-4.14
2017-09-15T00:15:37.010Z,-4.14
2017-09-15T00:16:25.206Z,-4.14
2017-09-15T00:17:13.224Z,-4.14
2017-09-15T00:18:07.637Z,-4.14
2017-09-15T00:19:07.199Z,-4.14
2017-09-15T00:20:01.205Z,-4.14
2017-09-15T00:21:02.197Z,-4.14
2017-09-15T00:22:02.291Z,-4.14
2017-09-15T00:22:57.321Z,-4.14
2017-09-15T00:23:58.424Z,-4.14
2017-09-15T00:24:47.356Z,-4.14
2017-09-15T00:25:36.540Z,-4.14
2017-09-15T00:26:24.471Z,-4.14
2017-09-15T00:27:18.629Z,-4.14
2017-09-15T00:28:07.852Z,-4.14
2017-09-15T00:28:56.631Z,-4.14
2017-09-15T00:29:51.834Z,-4.14
2017-09-15T00:30:46.836Z,-4.14
2017-09-15T00:31:40.679Z,-4.14
2017-09-15T00:32:40.812Z,-4.14
2017-09-15T00:33:35.095Z,-4.14
2017-09-15T00:34:23.912Z,-4.14
2017-09-15T00:35:23.901Z,-4.14
2017-09-15T00:36:11.870Z,-4.14
2017-09-15T00:37:06.896Z,-4.13
2017-09-15T00:38:00.846Z,-4.13
2017-09-15T00:39:00.936Z,-4.14
2017-09-15T00:39:50.008Z,-4.14
2017-09-15T00:40:50.121Z,-4.14
2017-09-15T00:41:45.083Z,-4.14
2017-09-15T00:42:34.440Z,-4.14
2017-09-15T00:43:22.302Z,-4.14
2017-09-15T00:44:22.153Z,-4.14
2017-09-15T00:45:16.235Z,-4.14
2017-09-15T00:46:16.528Z,-4.14
2017-09-15T00:47:11.200Z,-4.14
2017-09-15T00:48:11.574Z,-4.14
2017-09-15T00:49:05.336Z,-4.14
2017-09-15T00:50:00.441Z,-4.14
2017-09-15T00:50:55.580Z,-4.14
2017-09-15T00:51:55.453Z,-4.14
2017-09-15T00:52:55.405Z,-4.14
2017-09-15T00:53:44.515Z,-4.14
2017-09-15T00:54:44.745Z,-4.14
2017-09-15T00:55:39.591Z,-4.14
2017-09-15T00:56:33.518Z,-4.14
2017-09-15T00:57:27.707Z,-4.14
2017-09-15T00:58:27.679Z,-4.14
2017-09-15T00:59:21.755Z,-4.14
2017-09-15T01:00:11.038Z,-4.14
2017-09-15T01:01:04.789Z,-4.14
2017-09-15T01:01:59.802Z,-4.14
2017-09-15T01:02:55.248Z,-4.14
2017-09-15T01:03:55.768Z,-4.14
2017-09-15T01:04:49.993Z,-4.14
2017-09-15T01:05:43.943Z,-4.14
2017-09-15T01:06:38.993Z,-4.14
2017-09-15T01:07:33.949Z,-4.14
2017-09-15T01:08:34.388Z,-4.14
2017-09-15T01:09:28.082Z,-4.14
2017-09-15T01:10:29.007Z,-4.14
2017-09-15T01:11:29.170Z,-4.14
2017-09-15T01:12:23.070Z,-4.14
2017-09-15T01:13:18.397Z,-4.14
2017-09-15T01:14:12.334Z,-4.14
2017-09-15T01:15:06.348Z,-4.14
2017-09-15T01:15:55.282Z,-4.14
2017-09-15T01:16:49.354Z,-4.14
2017-09-15T01:17:44.700Z,-4.14
2017-09-15T01:18:33.762Z,-4.14
2017-09-15T01:19:28.573Z,-4.14
2017-09-15T01:20:28.483Z,-4.14
2017-09-15T01:21:23.461Z,-4.14
2017-09-15T01:22:18.516Z,-4.14
2017-09-15T01:23:06.568Z,-4.14
2017-09-15T01:24:00.746Z,-4.14
2017-09-15T01:25:00.772Z,-4.14
2017-09-15T01:26:00.623Z,-4.14
2017-09-15T01:27:00.688Z,-4.14
2017-09-15T01:27:54.713Z,-4.14
2017-09-15T01:28:54.879Z,-4.14
2017-09-15T01:29:49.810Z,-4.14
2017-09-15T01:30:38.786Z,-4.14
2017-09-15T01:31:38.853Z,-4.14
2017-09-15T01:32:32.993Z,-4.14
2017-09-15T01:33:20.941Z,-4.14
2017-09-15T01:34:14.982Z,-4.14
2017-09-15T01:35:03.138Z,-4.14
2017-09-15T01:36:03.066Z,-4.14
2017-09-15T01:36:57.069Z,-4.14
2017-09-15T01:37:52.517Z,-4.14
2017-09-15T01:38:41.281Z,-4.14
2017-09-15T01:39:30.251Z,-4.14
2017-09-15T01:40:19.215Z,-4.14
2017-09-15T01:41:19.438Z,-4.14
2017-09-15T01:42:13.266Z,-4.14
2017-09-15T01:43:07.742Z,-4.14
2017-09-15T01:44:02.551Z,-4.14
2017-09-15T01:44:56.427Z,-4.14
2017-09-15T01:45:50.517Z,-4.14
2017-09-15T01:46:45.549Z,-4.14
2017-09-15T01:47:45.577Z,-4.14
2017-09-15T01:48:40.481Z,-4.14
2017-09-15T01:49:40.444Z,-4.14
2017-09-15T01:50:34.610Z,-4.14
2017-09-15T01:51:28.600Z,-4.14
2017-09-15T01:52:23.723Z,-4.14
2017-09-15T01:53:17.860Z,-4.14
2017-09-15T01:54:12.012Z,-4.14
2017-09-15T01:55:00.900Z,-4.14
2017-09-15T01:55:54.816Z,-4.14
2017-09-15T01:56:55.848Z,-4.14
2017-09-15T01:57:49.909Z,-4.14
2017-09-15T01:58:43.968Z,-4.14
2017-09-15T01:59:37.935Z,-4.14
2017-09-15T02:00:33.306Z,-4.14
2017-09-15T02:01:22.053Z,-4.14
2017-09-15T02:02:22.111Z,-4.14
2017-09-15T02:03:16.369Z,-4.14
2017-09-15T02:04:11.121Z,-4.14
2017-09-15T02:05:05.233Z,-4.14
2017-09-15T02:05:54.197Z,-4.14
2017-09-15T02:06:54.233Z,-4.14
2017-09-15T02:07:48.233Z,-4.14
2017-09-15T02:08:48.356Z,-4.14
2017-09-15T02:09:43.384Z,-4.14
2017-09-15T02:10:38.266Z,-4.14
2017-09-15T02:11:33.392Z,-4.14
2017-09-15T02:12:34.422Z,-4.14
2017-09-15T02:13:23.733Z,-4.14
2017-09-15T02:14:17.590Z,-4.14
2017-09-15T02:15:12.541Z,-4.14
2017-09-15T02:16:00.618Z,-4.14
2017-09-15T02:16:48.616Z,-4.14
2017-09-15T02:17:42.697Z,-4.14
2017-09-15T02:18:30.977Z,-4.14
2017-09-15T02:19:24.842Z,-4.14
2017-09-15T02:20:18.758Z,-4.14
2017-09-15T02:21:12.739Z,-4.14
2017-09-15T02:22:12.770Z,-4.14
2017-09-15T02:23:13.126Z,-4.14
2017-09-15T02:24:18.810Z,-4.14
2017-09-15T02:25:13.266Z,-4.14
2017-09-15T02:26:06.963Z,-4.14
2017-09-15T02:27:01.006Z,-4.14
2017-09-15T02:27:55.064Z,-4.14
2017-09-15T02:28:44.372Z,-4.14
2017-09-15T02:29:33.054Z,-4.14
2017-09-15T02:30:27.216Z,-4.14
2017-09-15T02:31:16.309Z,-4.14
2017-09-15T02:32:05.231Z,-4.14
2017-09-15T02:33:05.184Z,-4.14
2017-09-15T02:33:54.591Z,-4.14
2017-09-15T02:34:43.392Z,-4.14
2017-09-15T02:35:37.350Z,-4.14
2017-09-15T02:36:26.703Z,-4.14
2017-09-15T02:37:15.389Z,-4.14
2017-09-15T02:38:09.883Z,-4.14
2017-09-15T02:38:58.552Z,-4.14
2017-09-15T02:39:47.492Z,-4.14
2017-09-15T02:40:36.640Z,-4.14
2017-09-15T02:41:36.712Z,-4.14
2017-09-15T02:42:25.701Z,-4.14
2017-09-15T02:43:14.976Z,-4.14
2017-09-15T02:44:03.670Z,-4.14
2017-09-15T02:44:52.729Z,-4.14
2017-09-15T02:45:52.741Z,-4.14
2017-09-15T02:46:46.999Z,-4.14
2017-09-15T02:47:41.799Z,-4.14
2017-09-15T02:48:36.278Z,-4.14
2017-09-15T02:49:35.988Z,-4.14
2017-09-15T02:50:30.417Z,-4.14
2017-09-15T02:51:30.911Z,-4.14
2017-09-15T02:52:20.060Z,-4.14
2017-09-15T02:53:15.229Z,-4.14
2017-09-15T02:54:04.029Z,-4.13
2017-09-15T02:55:04.249Z,-4.14
2017-09-15T02:55:58.156Z,-4.13
2017-09-15T02:56:59.253Z,-4.13
2017-09-15T02:57:47.291Z,-4.13
2017-09-15T02:58:41.247Z,-4.13
2017-09-15T02:59:36.242Z,-4.13
2017-09-15T03:00:37.335Z,-4.13
2017-09-15T03:01:31.481Z,-4.13
2017-09-15T03:02:31.896Z,-4.13
2017-09-15T03:03:20.506Z,-4.14
2017-09-15T03:04:14.465Z,-4.14
2017-09-15T03:05:02.483Z,-4.14
2017-09-15T03:05:56.597Z,-4.14
2017-09-15T03:06:56.595Z,-4.14
2017-09-15T03:07:45.556Z,-4.14
2017-09-15T03:08:33.912Z,-4.14
2017-09-15T03:09:28.683Z,-4.13
2017-09-15T03:10:22.946Z,-4.13
2017-09-15T03:11:16.820Z,-4.14
2017-09-15T03:12:05.808Z,-4.14
2017-09-15T03:13:00.850Z,-4.14
2017-09-15T03:13:55.431Z,-4.14
2017-09-15T03:14:43.876Z,-4.14
2017-09-15T03:15:37.980Z,-4.14
2017-09-15T03:16:38.288Z,-4.14
2017-09-15T03:17:32.979Z,-4.14
2017-09-15T03:18:28.359Z,-4.14
2017-09-15T03:19:23.262Z,-4.14
2017-09-15T03:20:18.163Z,-4.14
2017-09-15T03:21:13.342Z,-4.14
2017-09-15T03:22:01.182Z,-4.14
2017-09-15T03:23:01.324Z,-4.14
2017-09-15T03:23:55.650Z,-4.14
2017-09-15T03:24:49.307Z,-4.14
2017-09-15T03:25:49.318Z,-4.14
2017-09-15T03:26:37.370Z,-4.14
2017-09-15T03:27:37.414Z,-4.14
2017-09-15T03:28:31.727Z,-4.14
2017-09-15T03:29:20.662Z,-4.14
2017-09-15T03:30:14.530Z,-4.14
2017-09-15T03:31:09.585Z,-4.14
2017-09-15T03:32:04.623Z,-4.14
2017-09-15T03:33:05.561Z,-4.14
2017-09-15T03:33:54.901Z,-4.14
2017-09-15T03:34:42.778Z,-4.14
2017-09-15T03:35:36.718Z,-4.14
2017-09-15T03:36:31.753Z,-4.14
2017-09-15T03:37:25.781Z,-4.14
2017-09-15T03:38:20.919Z,-4.14
2017-09-15T03:39:14.996Z,-4.14
2017-09-15T03:40:08.937Z,-4.14
2017-09-15T03:41:03.973Z,-4.14
2017-09-15T03:41:57.986Z,-4.14
2017-09-15T03:42:58.006Z,-4.14
2017-09-15T03:43:46.980Z,-4.14
2017-09-15T03:44:35.213Z,-4.14
2017-09-15T03:45:24.148Z,-4.14
2017-09-15T03:46:12.348Z,-4.14
2017-09-15T03:47:01.179Z,-4.14
2017-09-15T03:47:55.189Z,-4.14
2017-09-15T03:48:50.607Z,-4.14
2017-09-15T03:49:50.315Z,-4.14
2017-09-15T03:50:50.269Z,-4.14
2017-09-15T03:51:56.479Z,-4.14
2017-09-15T03:52:56.398Z,-4.14
2017-09-15T03:53:57.719Z,-4.14
2017-09-15T03:54:51.531Z,-4.14
2017-09-15T03:55:51.475Z,-4.14
2017-09-15T03:56:46.555Z,-4.14
2017-09-15T03:57:46.530Z,-4.14
2017-09-15T03:58:46.547Z,-4.14
2017-09-15T03:59:41.611Z,-4.14
2017-09-15T04:00:41.623Z,-4.14
2017-09-15T04:01:41.765Z,-4.14
2017-09-15T04:02:36.702Z,-4.14
2017-09-15T04:03:30.758Z,-4.14
2017-09-15T04:04:30.770Z,-4.14
2017-09-15T04:05:25.758Z,-4.14
2017-09-15T04:06:20.861Z,-4.14
2017-09-15T04:07:08.855Z,-4.14
2017-09-15T04:07:56.975Z,-4.14
2017-09-15T04:08:51.024Z,-4.14
2017-09-15T04:09:50.971Z,-4.14
2017-09-15T04:10:45.059Z,-4.14
2017-09-15T04:11:40.021Z,-4.14
2017-09-15T04:12:35.085Z,-4.14
2017-09-15T04:13:35.129Z,-4.14
2017-09-15T04:14:24.309Z,-4.14
2017-09-15T04:15:18.198Z,-4.14
2017-09-15T04:16:12.161Z,-4.14
2017-09-15T04:17:07.308Z,-4.14
2017-09-15T04:17:55.233Z,-4.14
2017-09-15T04:18:55.599Z,-4.14
2017-09-15T04:19:50.350Z,-4.14
2017-09-15T04:20:44.464Z,-4.14
2017-09-15T04:21:33.722Z,-4.14
2017-09-15T04:22:28.874Z,-4.14
2017-09-15T04:23:16.672Z,-4.14
2017-09-15T04:24:04.534Z,-4.14
2017-09-15T04:24:59.628Z,-4.14
2017-09-15T04:25:53.608Z,-4.14
2017-09-15T04:26:47.686Z,-4.14
2017-09-15T04:27:41.688Z,-4.14
2017-09-15T04:28:37.051Z,-4.14
2017-09-15T04:29:36.713Z,-4.14
2017-09-15T04:30:30.975Z,-4.14
2017-09-15T04:31:24.744Z,-4.14
2017-09-15T04:32:18.793Z,-4.14
2017-09-15T04:33:13.236Z,-4.14
2017-09-15T04:34:07.878Z,-4.14
2017-09-15T04:35:07.893Z,-4.14
2017-09-15T04:35:57.023Z,-4.14
2017-09-15T04:36:46.300Z,-4.14
2017-09-15T04:37:41.110Z,-4.14
2017-09-15T04:38:30.218Z,-4.14
2017-09-15T04:39:18.093Z,-4.14
2017-09-15T04:40:06.283Z,-4.14
2017-09-15T04:41:01.460Z,-4.14
2017-09-15T04:42:02.205Z,-4.14
2017-09-15T04:43:02.204Z,-4.14
2017-09-15T04:44:02.429Z,-4.14
2017-09-15T04:44:56.485Z,-4.14
2017-09-15T04:45:57.385Z,-4.14
2017-09-15T04:46:57.393Z,-4.14
2017-09-15T04:47:57.438Z,-4.14
2017-09-15T04:48:47.475Z,-4.14
2017-09-15T04:49:35.635Z,-4.14
2017-09-15T04:50:24.526Z,-4.14
2017-09-15T04:51:15.647Z,-4.14
2017-09-15T04:52:00.693Z,-4.14
2017-09-15T04:53:00.739Z,-4.14
2017-09-15T04:54:00.654Z,-4.14
2017-09-15T04:54:48.775Z,-4.14
2017-09-15T04:55:48.747Z,-4.14
2017-09-15T04:56:43.766Z,-4.14
2017-09-15T04:57:32.947Z,-4.14
2017-09-15T04:58:21.924Z,-4.14
2017-09-15T04:59:22.901Z,-4.14
2017-09-15T05:00:22.918Z,-4.14
2017-09-15T05:01:18.026Z,-4.14
2017-09-15T05:02:17.970Z,-4.14
2017-09-15T05:03:12.746Z,-4.14
2017-09-15T05:04:01.311Z,-4.14
2017-09-15T05:04:55.097Z,-4.14
2017-09-15T05:05:55.073Z,-4.14
2017-09-15T05:06:55.163Z,-4.14
2017-09-15T05:07:49.186Z,-4.14
2017-09-15T05:08:43.261Z,-4.14
2017-09-15T05:09:38.232Z,-4.14
2017-09-15T05:10:27.671Z,-4.14
2017-09-15T05:11:22.362Z,-4.14
2017-09-15T05:12:16.482Z,-4.14
2017-09-15T05:13:06.673Z,-4.14
2017-09-15T05:14:01.491Z,-4.14
2017-09-15T05:14:55.578Z,-4.14
2017-09-15T05:15:49.510Z,-4.14
2017-09-15T05:16:38.581Z,-4.14
2017-09-15T05:17:32.697Z,-4.14
2017-09-15T05:18:20.605Z,-4.14
2017-09-15T05:19:09.685Z,-4.14
2017-09-15T05:20:03.906Z,-4.14
2017-09-15T05:20:58.924Z,-4.14
2017-09-15T05:21:47.796Z,-4.14
2017-09-15T05:22:36.129Z,-4.14
2017-09-15T05:23:24.854Z,-4.14
2017-09-15T05:24:24.901Z,-4.14
2017-09-15T05:25:13.950Z,-4.14
2017-09-15T05:26:07.987Z,-4.14
2017-09-15T05:27:03.063Z,-4.14
2017-09-15T05:27:57.062Z,-4.14
2017-09-15T05:28:52.212Z,-4.14
2017-09-15T05:29:52.223Z,-4.14
2017-09-15T05:30:41.161Z,-4.14
2017-09-15T05:31:30.170Z,-4.14
2017-09-15T05:32:24.316Z,-4.14
2017-09-15T05:33:24.230Z,-4.14
2017-09-15T05:34:18.314Z,-4.14
2017-09-15T05:35:12.258Z,-4.14
2017-09-15T05:36:07.363Z,-4.14
2017-09-15T05:37:07.428Z,-4.14
2017-09-15T05:38:07.424Z,-4.14
2017-09-15T05:39:07.495Z,-4.14
2017-09-15T05:40:07.455Z,-4.14
2017-09-15T05:41:07.667Z,-4.14
2017-09-15T05:42:01.890Z,-4.14
2017-09-15T05:42:55.565Z,-4.14
2017-09-15T05:43:49.640Z,-4.14
2017-09-15T05:44:43.700Z,-4.14
2017-09-15T05:45:31.851Z,-4.14
2017-09-15T05:46:20.984Z,-4.14
2017-09-15T05:47:20.794Z,-4.14
2017-09-15T05:48:09.816Z,-4.14
2017-09-15T05:48:57.874Z,-4.14
2017-09-15T05:49:46.990Z,-4.14
2017-09-15T05:50:35.950Z,-4.14
2017-09-15T05:51:30.076Z,-4.14
2017-09-15T05:52:29.995Z,-4.14
2017-09-15T05:53:25.102Z,-4.14
2017-09-15T05:54:19.116Z,-4.14
2017-09-15T05:55:13.154Z,-4.14
2017-09-15T05:56:07.152Z,-4.14
2017-09-15T05:56:55.453Z,-4.14
2017-09-15T05:57:50.219Z,-4.14
2017-09-15T05:58:45.223Z,-4.14
2017-09-15T05:59:39.330Z,-4.14
2017-09-15T06:00:28.449Z,-4.14
2017-09-15T06:01:28.390Z,-4.14
2017-09-15T06:02:23.721Z,-4.14
2017-09-15T06:03:18.000Z,-4.14
2017-09-15T06:04:11.499Z,-4.14
2017-09-15T06:05:00.828Z,-4.14
2017-09-15T06:05:49.564Z,-4.14
2017-09-15T06:06:43.598Z,-4.14
2017-09-15T06:07:54.736Z,-4.14
2017-09-15T06:08:44.694Z,-4.14
2017-09-15T06:09:32.722Z,-4.14
2017-09-15T06:10:27.795Z,-4.14
2017-09-15T06:11:16.773Z,-4.14
2017-09-15T06:12:10.873Z,-4.14
2017-09-15T06:12:59.925Z,-4.14
2017-09-15T06:14:00.145Z,-4.14
2017-09-15T06:14:53.928Z,-4.14
2017-09-15T06:15:48.118Z,-4.14
2017-09-15T06:16:41.982Z,-4.14
2017-09-15T06:17:36.066Z,-4.14
2017-09-15T06:18:30.454Z,-4.14
2017-09-15T06:19:36.095Z,-4.14
2017-09-15T06:20:31.338Z,-4.13
2017-09-15T06:21:25.166Z,-4.13
2017-09-15T06:22:25.574Z,-4.13
2017-09-15T06:23:19.648Z,-4.13
2017-09-15T06:24:19.345Z,-4.13
2017-09-15T06:25:14.478Z,-4.13
2017-09-15T06:26:09.375Z,-4.13
2017-09-15T06:27:03.342Z,-4.13
2017-09-15T06:28:03.552Z,-4.13
2017-09-15T06:28:58.485Z,-4.13
2017-09-15T06:29:58.649Z,-4.13
2017-09-15T06:30:58.612Z,-4.13
2017-09-15T06:31:58.694Z,-4.13
2017-09-15T06:32:47.700Z,-4.13
2017-09-15T06:33:36.699Z,-4.13
2017-09-15T06:34:31.688Z,-4.13
2017-09-15T06:35:19.870Z,-4.13
2017-09-15T06:36:19.852Z,-4.13
2017-09-15T06:37:14.863Z,-4.13
2017-09-15T06:38:08.884Z,-4.13
2017-09-15T06:39:04.180Z,-4.13
2017-09-15T06:39:52.997Z,-4.13
2017-09-15T06:40:42.166Z,-4.13
2017-09-15T06:41:30.979Z,-4.13
2017-09-15T06:42:19.208Z,-4.13
2017-09-15T06:43:13.201Z,-4.13
2017-09-15T06:44:08.383Z,-4.13
2017-09-15T06:45:08.437Z,-4.13
2017-09-15T06:45:57.537Z,-4.13
2017-09-15T06:46:51.288Z,-4.13
2017-09-15T06:47:51.618Z,-4.13
2017-09-15T06:48:51.644Z,-4.13
2017-09-15T06:49:40.630Z,-4.13
2017-09-15T06:50:35.698Z,-4.13
2017-09-15T06:51:29.562Z,-4.13
2017-09-15T06:52:23.672Z,-4.13
2017-09-15T06:53:18.854Z,-4.13
2017-09-15T06:54:12.768Z,-4.13
2017-09-15T06:55:12.619Z,-4.13
2017-09-15T06:56:07.701Z,-4.13
2017-09-15T06:57:07.903Z,-4.13
2017-09-15T06:58:07.729Z,-4.13
2017-09-15T06:59:07.726Z,-4.13
2017-09-15T07:00:01.855Z,-4.13
2017-09-15T07:00:49.965Z,-4.13
2017-09-15T07:01:38.915Z,-4.13
2017-09-15T07:02:27.003Z,-4.13
2017-09-15T07:03:16.330Z,-4.13
2017-09-15T07:04:09.972Z,-4.13
2017-09-15T07:05:04.123Z,-4.13
2017-09-15T07:05:58.088Z,-4.13
2017-09-15T07:06:59.240Z,-4.13
2017-09-15T07:07:59.400Z,-4.13
2017-09-15T07:08:54.352Z,-4.13
2017-09-15T07:09:54.513Z,-4.13
2017-09-15T07:10:49.763Z,-4.13
2017-09-15T07:11:44.305Z,-4.13
2017-09-15T07:12:38.433Z,-4.13
2017-09-15T07:13:33.404Z,-4.13
2017-09-15T07:14:22.796Z,-4.13
2017-09-15T07:15:16.461Z,-4.13
2017-09-15T07:16:05.524Z,-4.13
2017-09-15T07:16:54.534Z,-4.13
2017-09-15T07:17:49.676Z,-4.13
2017-09-15T07:18:50.662Z,-4.13
2017-09-15T07:19:44.860Z,-4.12
2017-09-15T07:20:33.754Z,-4.12
2017-09-15T07:21:28.804Z,-4.12
2017-09-15T07:22:23.235Z,-4.12
2017-09-15T07:23:17.186Z,-4.12
2017-09-15T07:24:12.099Z,-4.12
2017-09-15T07:24:59.902Z,-4.12
2017-09-15T07:25:59.999Z,-4.12
2017-09-15T07:26:54.164Z,-4.12
2017-09-15T07:27:54.008Z,-4.12
2017-09-15T07:28:42.317Z,-4.12
2017-09-15T07:29:30.186Z,-4.12
2017-09-15T07:30:24.556Z,-4.12
2017-09-15T07:31:25.228Z,-4.12
2017-09-15T07:32:26.240Z,-4.12
2017-09-15T07:33:20.614Z,-4.12
2017-09-15T07:34:14.575Z,-4.12
2017-09-15T07:35:14.620Z,-4.12
2017-09-15T07:36:03.388Z,-4.12
2017-09-15T07:36:58.726Z,-4.12
2017-09-15T07:37:46.464Z,-4.11
2017-09-15T07:38:41.534Z,-4.11
2017-09-15T07:39:36.554Z,-4.12
2017-09-15T07:40:30.695Z,-4.12
2017-09-15T07:41:25.694Z,-4.12
2017-09-15T07:42:14.742Z,-4.12
2017-09-15T07:43:02.785Z,-4.12
2017-09-15T07:43:51.820Z,-4.12
2017-09-15T07:44:46.995Z,-4.12
2017-09-15T07:45:46.957Z,-4.12
2017-09-15T07:46:41.881Z,-4.12
2017-09-15T07:47:36.902Z,-4.12
2017-09-15T07:48:31.243Z,-4.12
2017-09-15T07:49:26.120Z,-4.12
2017-09-15T07:50:20.072Z,-4.12
2017-09-15T07:51:14.281Z,-4.12
2017-09-15T07:52:09.216Z,-4.11
2017-09-15T07:53:10.483Z,-4.12
2017-09-15T07:54:04.228Z,-4.12
2017-09-15T07:55:04.590Z,-4.12
2017-09-15T07:55:59.452Z,-4.12
2017-09-15T07:56:54.389Z,-4.11
2017-09-15T07:57:48.518Z,-4.11
2017-09-15T07:58:48.770Z,-4.11
2017-09-15T07:59:43.629Z,-4.11
2017-09-15T08:00:38.585Z,-4.11
2017-09-15T08:01:38.650Z,-4.11
2017-09-15T08:02:32.845Z,-4.11
2017-09-15T08:03:32.593Z,-4.11
2017-09-15T08:04:27.683Z,-4.11
2017-09-15T08:05:16.746Z,-4.11
2017-09-15T08:06:12.073Z,-4.11
2017-09-15T08:06:59.809Z,-4.11
2017-09-15T08:07:53.972Z,-4.11
2017-09-15T08:08:47.954Z,-4.11
2017-09-15T08:09:47.941Z,-4.11
2017-09-15T08:10:42.999Z,-4.11
2017-09-15T08:11:37.013Z,-4.11
2017-09-15T08:12:37.088Z,-4.10
2017-09-15T08:13:26.154Z,-4.11
2017-09-15T08:14:20.374Z,-4.11
2017-09-15T08:15:09.154Z,-4.10
2017-09-15T08:16:09.468Z,-4.10
2017-09-15T08:17:03.314Z,-4.10
2017-09-15T08:17:58.395Z,-4.10
2017-09-15T08:18:52.672Z,-4.10
2017-09-15T08:19:40.587Z,-4.10
2017-09-15T08:20:40.475Z,-4.11
2017-09-15T08:21:35.703Z,-4.11
2017-09-15T08:22:35.634Z,-4.11
2017-09-15T08:23:35.666Z,-4.11
2017-09-15T08:24:35.585Z,-4.11
2017-09-15T08:25:23.652Z,-4.11
2017-09-15T08:26:12.698Z,-4.11
2017-09-15T08:27:01.766Z,-4.11
2017-09-15T08:28:01.805Z,-4.11
2017-09-15T08:29:01.845Z,-4.11
2017-09-15T08:30:01.904Z,-4.11
2017-09-15T08:31:01.878Z,-4.11
2017-09-15T08:32:01.924Z,-4.12
2017-09-15T08:32:51.006Z,-4.12
2017-09-15T08:33:46.006Z,-4.12
2017-09-15T08:34:40.305Z,-4.12
2017-09-15T08:35:35.145Z,-4.12
2017-09-15T08:36:24.191Z,-4.12
2017-09-15T08:37:19.409Z,-4.12
2017-09-15T08:38:19.568Z,-4.12
2017-09-15T08:39:14.356Z,-4.13
2017-09-15T08:40:14.421Z,-4.13
2017-09-15T08:41:03.445Z,-4.13
2017-09-15T08:41:57.401Z,-4.13
2017-09-15T08:42:57.419Z,-4.13
2017-09-15T08:43:46.561Z,-4.13
2017-09-15T08:44:35.513Z,-4.13
2017-09-15T08:45:30.688Z,-4.13
2017-09-15T08:46:30.642Z,-4.13
2017-09-15T08:47:25.749Z,-4.13
2017-09-15T08:48:25.620Z,-4.12
2017-09-15T08:49:26.681Z,-4.12
2017-09-15T08:50:27.788Z,-4.12
2017-09-15T08:51:16.790Z,-4.12
2017-09-15T08:52:04.900Z,-4.12
2017-09-15T08:53:04.939Z,-4.12
2017-09-15T08:54:04.920Z,-4.12
2017-09-15T08:54:54.972Z,-4.12
2017-09-15T08:55:49.059Z,-4.12
2017-09-15T08:56:49.077Z,-4.12
2017-09-15T08:57:43.426Z,-4.12
2017-09-15T08:58:38.090Z,-4.12
2017-09-15T08:59:33.206Z,-4.12
2017-09-15T09:00:21.448Z,-4.12
2017-09-15T09:01:15.363Z,-4.12
2017-09-15T09:02:15.324Z,-4.12
2017-09-15T09:03:10.485Z,-4.12
2017-09-15T09:04:05.449Z,-4.12
2017-09-15T09:05:05.570Z,-4.12
2017-09-15T09:06:00.862Z,-4.12
2017-09-15T09:06:54.571Z,-4.12
2017-09-15T09:08:01.516Z,-4.12
2017-09-15T09:09:02.605Z,-4.12
2017-09-15T09:09:51.728Z,-4.12
2017-09-15T09:10:46.777Z,-4.12
2017-09-15T09:11:40.719Z,-4.12
2017-09-15T09:12:36.050Z,-4.12
2017-09-15T09:13:36.910Z,-4.13
2017-09-15T09:14:37.064Z,-4.12
2017-09-15T09:15:32.086Z,-4.12
2017-09-15T09:16:32.149Z,-4.12
2017-09-15T09:17:26.216Z,-4.12
2017-09-15T09:18:15.338Z,-4.12
2017-09-15T09:19:09.296Z,-4.12
2017-09-15T09:20:04.516Z,-4.12
2017-09-15T09:20:58.412Z,-4.12
2017-09-15T09:21:52.380Z,-4.11
2017-09-15T09:22:46.440Z,-4.12
2017-09-15T09:23:41.503Z,-4.13
2017-09-15T09:24:41.537Z,-4.13
2017-09-15T09:25:36.539Z,-4.13
2017-09-15T09:26:30.646Z,-4.13
2017-09-15T09:27:24.677Z,-4.13
2017-09-15T09:28:13.432Z,-4.13
2017-09-15T09:29:02.486Z,-4.13
2017-09-15T09:29:57.508Z,-4.13
2017-09-15T09:30:46.611Z,-4.12
2017-09-15T09:31:40.597Z,-4.11
2017-09-15T09:32:39.701Z,-4.11
2017-09-15T09:33:29.996Z,-4.12
2017-09-15T09:34:23.711Z,-4.12
2017-09-15T09:35:18.770Z,-4.12
2017-09-15T09:36:07.881Z,-4.11
2017-09-15T09:37:02.113Z,-4.11
2017-09-15T09:38:01.941Z,-4.11
2017-09-15T09:38:57.068Z,-4.11
2017-09-15T09:39:57.119Z,-4.11
2017-09-15T09:40:57.245Z,-4.11
2017-09-15T09:41:52.214Z,-4.10
2017-09-15T09:42:46.366Z,-4.10
2017-09-15T09:43:41.208Z,-4.10
2017-09-15T09:44:36.518Z,-4.09
2017-09-15T09:45:30.428Z,-4.09
2017-09-15T09:46:25.622Z,-4.10
2017-09-15T09:47:13.729Z,-4.11
2017-09-15T09:48:07.656Z,-4.11
2017-09-15T09:49:01.654Z,-4.11
2017-09-15T09:49:55.816Z,-4.11
2017-09-15T09:50:50.610Z,-4.11
2017-09-15T09:51:38.650Z,-4.12
2017-09-15T09:52:39.771Z,-4.13
2017-09-15T09:53:33.861Z,-4.14
2017-09-15T09:54:27.863Z,-4.14
2017-09-15T09:55:22.795Z,-4.14
2017-09-15T09:56:16.871Z,-4.14
2017-09-15T09:57:10.848Z,-4.14
2017-09-15T09:57:59.005Z,-4.14
2017-09-15T09:58:52.982Z,-4.14
2017-09-15T09:59:53.088Z,-4.14
2017-09-15T10:00:48.154Z,-4.14
2017-09-15T10:01:42.112Z,-4.13
2017-09-15T10:02:42.267Z,-4.13
2017-09-15T10:03:42.303Z,-4.12
2017-09-15T10:04:48.447Z,-4.11
2017-09-15T10:05:43.350Z,-4.09
2017-09-15T10:06:37.512Z,-4.09
2017-09-15T10:07:32.885Z,-4.09
2017-09-15T10:08:33.938Z,-4.09
2017-09-15T10:09:22.537Z,-4.10
2017-09-15T10:10:17.642Z,-4.10
2017-09-15T10:11:11.598Z,-4.11
2017-09-15T10:12:11.644Z,-4.12
2017-09-15T10:13:05.754Z,-4.12
2017-09-15T10:13:59.706Z,-4.12
2017-09-15T10:14:59.738Z,-4.12
2017-09-15T10:15:48.977Z,-4.11
2017-09-15T10:16:43.068Z,-4.11
2017-09-15T10:17:37.900Z,-4.11
2017-09-15T10:18:32.026Z,-4.11
2017-09-15T10:19:32.242Z,-4.10
2017-09-15T10:20:21.261Z,-4.08
2017-09-15T10:21:10.436Z,-4.07
2017-09-15T10:22:04.486Z,-4.07
2017-09-15T10:22:58.579Z,-4.06
2017-09-15T10:23:58.450Z,-4.06
2017-09-15T10:24:52.567Z,-4.06
2017-09-15T10:25:46.990Z,-4.06
2017-09-15T10:26:34.793Z,-4.06
2017-09-15T10:27:29.817Z,-4.07
2017-09-15T10:28:24.939Z,-4.08
2017-09-15T10:29:18.959Z,-4.08
2017-09-15T10:30:12.905Z,-4.08
2017-09-15T10:31:07.021Z,-4.09
2017-09-15T10:32:00.879Z,-4.09
2017-09-15T10:32:56.109Z,-4.09
2017-09-15T10:33:56.065Z,-4.09
2017-09-15T10:34:50.384Z,-4.09
2017-09-15T10:35:50.031Z,-4.09
2017-09-15T10:36:44.011Z,-4.09
2017-09-15T10:37:44.962Z,-4.09
2017-09-15T10:38:39.333Z,-4.09
2017-09-15T10:39:28.223Z,-4.09
2017-09-15T10:40:17.387Z,-4.08
2017-09-15T10:41:12.444Z,-4.08
2017-09-15T10:42:07.621Z,-4.07
2017-09-15T10:42:55.626Z,-4.07
2017-09-15T10:43:44.771Z,-4.07
2017-09-15T10:44:38.705Z,-4.07
2017-09-15T10:45:38.796Z,-4.06
2017-09-15T10:46:32.781Z,-4.07
2017-09-15T10:47:26.959Z,-4.06
2017-09-15T10:48:21.059Z,-4.06
2017-09-15T10:49:15.638Z,-4.05
2017-09-15T10:50:15.803Z,-2.61
2017-09-15T10:51:10.813Z,-4.05
2017-09-15T10:52:04.954Z,-0.85
2017-09-15T10:53:05.177Z,-1.96
2017-09-15T10:54:06.225Z,7.61
2017-09-15T10:54:54.105Z,13.60
2017-09-15T10:55:48.239Z,11.08
2017-09-15T10:56:42.187Z,-3.65
2017-09-15T10:57:31.339Z,-4.06
2017-09-15T10:58:31.448Z,-4.07
2017-09-15T10:59:31.566Z,-4.08
2017-09-15T11:00:31.609Z,-4.08
2017-09-15T11:01:25.715Z,-4.09
2017-09-15T11:02:19.869Z,-4.09
2017-09-15T11:03:19.443Z,-4.09
2017-09-15T11:04:19.525Z,-4.09
2017-09-15T11:05:13.849Z,-4.09
2017-09-15T11:06:07.778Z,-4.08
2017-09-15T11:07:01.684Z,-4.07
2017-09-15T11:07:56.699Z,-4.05
2017-09-15T11:08:57.164Z,-4.05
2017-09-15T11:09:46.153Z,-4.05
2017-09-15T11:10:39.937Z,-4.05
2017-09-15T11:11:33.895Z,5.35
2017-09-15T11:12:28.264Z,13.83
2017-09-15T11:13:28.102Z,11.40
2017-09-15T11:14:28.338Z,15.81
2017-09-15T11:15:17.249Z,11.21
2017-09-15T11:16:16.279Z,-4.06
2017-09-15T11:17:05.502Z,-4.07
2017-09-15T11:17:59.454Z,-4.07
2017-09-15T11:18:54.700Z,-4.08
2017-09-15T11:19:49.700Z,-4.08
2017-09-15T11:20:43.681Z,-4.09
2017-09-15T11:21:37.849Z,-4.09
2017-09-15T11:22:31.819Z,-4.10
2017-09-15T11:23:26.019Z,-4.10
2017-09-15T11:24:14.622Z,-4.11
2017-09-15T11:25:08.850Z,-4.12
2017-09-15T11:26:08.987Z,-4.12
2017-09-15T11:27:03.765Z,-4.12
2017-09-15T11:27:51.806Z,-4.12
2017-09-15T11:28:41.190Z,-4.12
2017-09-15T11:29:40.954Z,-4.12
2017-09-15T11:30:35.181Z,-4.12
2017-09-15T11:31:36.213Z,-4.12
2017-09-15T11:32:30.226Z,-4.12
2017-09-15T11:33:25.695Z,-4.12
2017-09-15T11:34:13.214Z,-4.11
2017-09-15T11:35:08.670Z,-4.11
2017-09-15T11:36:02.424Z,-4.11
2017-09-15T11:36:57.742Z,-4.11
2017-09-15T11:37:51.665Z,-4.11
2017-09-15T11:38:46.768Z,-4.10
2017-09-15T11:39:40.568Z,-4.10
2017-09-15T11:40:35.470Z,-4.10
2017-09-15T11:41:30.608Z,-4.09
2017-09-15T11:42:30.665Z,-4.08